If you wish to contribute or participate in the discussions about articles you are invited to join SKYbrary as a registered user

 Actions

Piarco International Airport

From SKYbrary Wiki

TTPP
Airport
ICAO: TTPP – IATA: POS
Summary
Name Piarco International Airport
Region South America and Caribbean
Territory Trinidad and Tobago TT.gif
Location Piarco, Trinidad
Serving Port of Spain
Elevation 17.678 m
58 ft17.678 m
Coordinates 10° 35' 51.71" N, 61° 20' 22.30" W
Runways
Designator Length Width Surface ROPS
10/28 3200 m10,498.688 ft
46 m150.919 ft
ASP yes/yes


METAR
Observation TTPP 230300Z 00000KT 9999 FEW010 SCT040 24/23 Q1013 NOSIG
Station Piarco International Airport, Trinidad
Date/Time 23 September 2019 03:00:00
Wind direction
Wind speed 00 kts
Lowest cloud amount few clouds
Temperature 24°C
Dew point 23°C
Humidity 94%
QNH 1013 hPa
Weather condition n/a

Piarco International Airport, is an international airport serving the island of Trinidad. The airport is located 30 km16.199 nm
30,000 m
98,425.197 ft
east of Port of Spain.

Climatology

Tropical savannah climate (Köppen climate classification Aw)

Maps

Terrain

Loading map...

Airport Layout

Loading map...


Accidents & Serious Incidents at or in vicinity of TTPP

None on SKYbrary